Jasper, Michigan
Current Conditions -  °F | °C
As of 5:53 PM on Wednesday 22 Oct 2014 (Local Time) from KADG Reporting Station
Scattered Clouds Scattered Clouds  
Wind Chill: 51°   Ceiling: Unl
Heat Index: 51°   Visibility: 10mi
Dew Point: 40°   Wind: 3mph
Humidity: 66%   Direction: 340°NNW
Pressure: 30.29"   Gusts: NA
Location:  41.79°N, 84.04°W
Report Text: KADG 222153Z AUTO 34003KT 10SM SCT031 11/04 A3029 RMK AO2 SLP262 T01060044
Loading
Personal Weather Stations






























Interactive Weather Map
Tropical Storm Tracking
New forecast layout! Learn more

10-Day Weather Forecast

Advertisements
Track Severe Weather on mobile